Latest Weather Observations for Richmond

IDQ60801

Issued at 1:02 pm EST Sunday 29 March 2015 (issued every 30 minutes, with the page automatically refreshed every 10 minutes)

About weather observations | Map of weather stations | Latest weather observations for QLD | Other Formats
Station Details ID: 030161 Name: RICHMOND AIRPORT Lat: -20.70 Lon: 143.12 Height: 206.3 m
Data from the previous 72 hours. | See also: Recent months at Richmond
Date/Time
EST
Temp
°C
App
Temp
°C
Dew
Point
Rel
Hum
%
Delta-T
°C
Wind Press
QNH
hPa
Press
MSL
hPa
Rain
since 9 am
mm
Dir
 
Spd
km/h
Gust
km/h
Spd
kts
Gust
kts
29/01:00pm 36.6 33.9 13.4 25 14.3 ENE 20 30 11 16 1015.0 1013.6 0.0
29/12:30pm 35.7 33.1 13.2 26 13.8 E 19 32 10 17 1015.8 1014.4 0.0
29/12:00pm 35.3 33.7 14.0 28 13.2 ENE 15 30 8 16 1016.3 1014.9 0.0
29/11:30am 34.8 32.7 13.6 28 13.0 E 17 32 9 17 1016.9 1015.5 0.0
29/11:00am 34.3 31.9 13.7 29 12.6 E 19 30 10 16 1017.3 1015.9 0.0
29/10:30am 33.7 31.1 13.2 29 12.5 NE 19 28 10 15 1017.5 1016.1 0.0
29/10:00am 32.8 30.5 12.9 29 12.0 NE 17 24 9 13 1017.9 1016.6 0.0
29/09:30am 31.7 28.3 12.5 31 11.5 NNE 22 28 12 15 1017.9 1016.6 0.0
29/09:00am 30.6 28.2 12.5 33 10.8 NE 17 24 9 13 1017.7 1016.3 0.0
29/08:30am 28.7 26.2 13.4 39 9.2 NE 19 26 10 14 1017.5 1016.1 0.0
29/08:00am 26.9 26.5 14.0 45 7.7 NE 9 13 5 7 1017.2 1015.8 0.0
29/07:30am 25.3 25.2 13.8 49 6.8 ENE 7 9 4 5 1016.8 1015.4 0.0
29/07:00am 23.0 22.3 13.2 54 5.7 ENE 9 11 5 6 1016.2 1014.8 0.0
29/06:30am 23.7 22.9 13.0 51 6.2 ENE 9 13 5 7 1015.9 1014.5 0.0
29/06:00am 24.3 22.4 12.9 49 6.6 NE 15 19 8 10 1015.3 1013.9 0.0
29/05:30am 24.3 22.7 12.9 49 6.6 NE 13 17 7 9 1014.9 1013.5 0.0
29/05:00am 23.9 22.4 13.2 51 6.3 NE 13 17 7 9 1014.5 1013.1 0.0
29/04:30am 23.7 22.9 13.0 51 6.2 NE 9 11 5 6 1014.3 1013.0 0.0
29/04:00am 23.8 23.1 13.1 51 6.2 ENE 9 11 5 6 1013.9 1012.6 0.0
29/03:30am 24.5 23.7 12.8 48 6.8 ENE 9 11 5 6 1013.7 1012.4 0.0
29/03:00am 24.3 23.6 13.2 50 6.5 ENE 9 13 5 7 1013.6 1012.3 0.0
29/02:30am 24.7 24.5 13.6 50 6.6 NE 7 9 4 5 1013.6 1012.3 0.0
29/02:00am 24.2 23.9 13.4 51 6.3 ENE 7 9 4 5 1013.5 1012.2 0.0
29/01:30am 25.4 24.4 13.3 47 7.1 E 11 13 6 7 1013.7 1012.4 0.0
29/01:00am 25.8 24.3 13.0 45 7.5 E 13 13 7 7 1013.9 1012.6 0.0
29/12:30am 26.5 25.9 13.6 45 7.7 E 9 11 5 6 1014.1 1012.8 0.0
29/12:00am 27.2 26.1 13.2 42 8.3 E 11 13 6 7 1014.2 1012.9 0.0
 
Date/Time
EST
Temp
°C
App
Temp
°C
Dew
Point
Rel
Hum
%
Delta-T
°C
Wind Press
QNH
hPa
Press
MSL
hPa
Rain
since 9 am
mm
Dir
 
Spd
km/h
Gust
km/h
Spd
kts
Gust
kts
28/11:30pm 27.2 26.5 13.2 42 8.3 ENE 9 11 5 6 1014.3 1013.0 0.0
28/11:00pm 28.1 26.9 12.8 38 9.0 E 11 13 6 7 1014.6 1013.2 0.0
28/10:30pm 28.5 27.3 12.8 38 9.3 ENE 11 13 6 7 1014.6 1013.2 0.0
28/10:00pm 29.0 27.0 12.8 36 9.6 E 15 15 8 8 1014.6 1013.2 0.0
28/09:30pm 29.8 28.2 12.7 35 10.2 ESE 13 15 7 8 1014.3 1013.0 0.0
28/09:00pm 30.2 28.5 12.6 34 10.5 ESE 13 15 7 8 1014.1 1012.8 0.0
28/08:30pm 31.5 30.1 12.3 31 11.4 ESE 11 13 6 7 1014.0 1012.7 0.0
28/08:00pm 32.3 30.2 12.5 30 11.9 ESE 15 17 8 9 1013.7 1012.4 0.0
28/07:30pm 33.5 31.4 12.5 28 12.6 ESE 15 20 8 11 1013.3 1011.9 0.0
28/07:00pm 33.9 32.2 12.3 27 13.0 ESE 13 19 7 10 1012.7 1011.3 0.0
28/06:30pm 35.2 32.8 12.8 26 13.6 ESE 17 22 9 12 1012.3 1010.9 0.0
28/06:00pm 35.5 31.7 12.5 25 14.0 SE 24 30 13 16 1012.0 1010.6 0.0
28/05:30pm 36.3 33.3 12.5 24 14.5 ESE 20 28 11 15 1011.9 1010.5 0.0
28/05:00pm 36.8 34.5 12.9 24 14.7 E 17 26 9 14 1011.7 1010.3 0.0
28/04:30pm 36.7 33.0 12.8 24 14.6 E 24 39 13 21 1011.7 1010.3 0.0
28/04:00pm 37.0 34.0 12.4 23 15.0 E 20 28 11 15 1011.7 1010.3 0.0
28/03:30pm 37.2 34.6 13.2 23 14.8 ESE 19 26 10 14 1012.0 1010.6 0.0
28/03:00pm 36.7 35.0 13.5 25 14.3 E 15 24 8 13 1012.3 1010.9 0.0
28/02:30pm 36.9 33.9 13.6 24 14.4 E 22 33 12 18 1012.5 1011.1 0.0
28/02:00pm 37.2 36.1 13.2 23 14.8 ENE 11 22 6 12 1012.9 1011.5 0.0
28/01:30pm 36.3 34.1 14.3 27 13.7 E 19 32 10 17 1013.2 1011.8 0.0
28/01:00pm 35.7 34.1 14.9 29 13.1 ENE 17 28 9 15 1013.9 1012.6 0.0
28/12:30pm 35.5 35.0 15.8 31 12.5 NE 13 24 7 13 1014.6 1013.2 0.0
28/12:00pm 34.4 34.0 16.3 34 11.5 NE 13 22 7 12 1015.2 1013.8 0.0
28/11:30am 33.8 32.6 16.2 35 11.2 ENE 17 26 9 14 1015.9 1014.5 0.0
28/11:00am 32.9 30.8 16.3 37 10.5 NNE 22 30 12 16 1016.4 1015.0 0.0
28/10:30am 32.5 32.1 16.3 37 10.3 NNE 13 24 7 13 1016.7 1015.3 0.0
28/10:00am 31.7 30.2 16.8 40 9.5 N 20 26 11 14 1016.9 1015.5 0.0
28/09:30am 31.1 30.3 17.0 42 9.0 NE 17 24 9 13 1017.0 1015.6 0.0
28/09:00am 29.6 28.9 16.4 45 8.3 NE 15 20 8 11 1017.0 1015.6 0.0
28/08:30am 29.1 28.8 17.3 49 7.5 NE 15 19 8 10 1016.7 1015.3 0.0
28/08:00am 27.4 27.3 17.0 53 6.5 NE 13 19 7 10 1016.3 1014.9 0.0
28/07:30am 26.9 26.7 16.8 54 6.3 NE 13 17 7 9 1015.9 1014.5 0.0
28/07:00am 25.4 25.9 16.5 58 5.5 ENE 9 13 5 7 1015.5 1014.1 0.0
28/06:30am 24.4 25.1 16.1 60 5.1 ENE 7 9 4 5 1015.0 1013.6 0.0
28/06:00am 25.0 25.9 16.7 60 5.2 ENE 7 11 4 6 1014.5 1013.1 0.0
28/05:30am 25.5 25.6 16.6 58 5.5 ENE 11 15 6 8 1014.1 1012.8 0.0
28/05:00am 26.2 25.6 16.7 56 5.9 ESE 15 19 8 10 1013.8 1012.5 0.0
28/04:30am 26.9 25.6 16.8 54 6.3 E 19 24 10 13 1013.5 1012.2 0.0
28/04:00am 27.3 25.9 16.9 53 6.5 ESE 20 28 11 15 1013.4 1012.0 0.0
28/03:30am 27.3 25.9 16.9 53 6.5 ESE 20 26 11 14 1013.4 1012.0 0.0
28/03:00am 28.0 26.6 16.9 51 7.0 SE 20 26 11 14 1013.5 1012.2 0.0
28/02:30am 28.3 26.9 16.9 50 7.2 SE 20 24 11 13 1013.5 1012.2 0.0
28/02:00am 28.3 27.3 16.6 49 7.3 SE 17 22 9 12 1013.6 1012.3 0.0
28/01:30am 27.9 27.5 16.2 49 7.3 SE 13 13 7 7 1013.8 1012.5 0.0
28/01:00am 28.3 27.7 15.6 46 7.9 S 13 17 7 9 1013.8 1012.5 0.0
28/12:30am 29.5 29.8 16.0 44 8.4 SE 9 13 5 7 1014.2 1012.9 0.0
28/12:00am 30.2 29.8 16.2 42 8.8 SE 13 20 7 11 1014.6 1013.2 0.0
 
Date/Time
EST
Temp
°C
App
Temp
°C
Dew
Point
Rel
Hum
%
Delta-T
°C
Wind Press
QNH
hPa
Press
MSL
hPa
Rain
since 9 am
mm
Dir
 
Spd
km/h
Gust
km/h
Spd
kts
Gust
kts
27/11:30pm 30.5 30.3 15.8 41 9.2 ESE 11 13 6 7 1014.5 1013.1 0.0
27/11:00pm 30.6 31.2 15.8 40 9.3 ESE 7 9 4 5 1014.3 1013.0 0.0
27/10:30pm 30.8 31.1 16.0 40 9.3 ESE 9 11 5 6 1014.5 1013.1 0.0
27/10:00pm 31.0 30.8 15.8 40 9.5 S 11 13 6 7 1014.5 1013.1 0.0
27/09:30pm 31.6 30.6 15.5 37 10.1 SSE 15 19 8 10 1014.6 1013.2 0.0
27/09:00pm 32.1 30.1 15.6 37 10.3 S 20 32 11 17 1014.2 1012.9 0.0
27/08:30pm 31.8 32.5 15.7 37 10.1 S 6 9 3 5 1013.8 1012.5 0.0
27/08:00pm 32.1 33.9 15.6 37 10.3 CALM 0 0 0 0 1013.4 1012.0 0.0
27/07:30pm 32.6 32.7 15.6 36 10.7 E 9 11 5 6 1013.2 1011.8 0.0
27/07:00pm 32.8 32.1 15.3 34 10.9 ESE 13 19 7 10 1013.1 1011.7 0.0
27/06:30pm 33.2 30.7 15.2 33 11.3 ESE 22 32 12 17 1013.0 1011.6 0.0
27/06:00pm 34.7 34.1 14.6 30 12.5 ESE 11 17 6 9 1012.6 1011.2 0.0
27/05:30pm 34.9 34.7 14.7 29 12.6 ESE 9 15 5 8 1012.3 1010.9 0.0
27/05:00pm 34.9 34.3 14.7 29 12.6 ENE 11 17 6 9 1012.2 1010.8 0.0
27/04:30pm 34.9 34.9 14.2 28 12.8 NE 7 22 4 12 1012.2 1010.8 0.0
27/04:00pm 36.5 35.6 12.7 24 14.5 WNW 9 17 5 9 1012.0 1010.6 0.0
27/03:30pm 37.1 35.4 12.5 23 15.0 WNW 13 20 7 11 1012.1 1010.7 0.0
27/03:00pm 37.0 34.9 12.4 23 15.0 WSW 15 22 8 12 1012.3 1010.9 0.0
27/02:30pm 37.3 37.0 12.7 23 15.1 NNW 6 15 3 8 1012.7 1011.3 0.0
27/02:00pm 35.8 35.3 12.1 24 14.3 NNW 6 11 3 6 1013.1 1011.7 0.0
27/01:30pm 36.3 35.8 11.9 23 14.7 NW 6 17 3 9 1013.5 1012.2 0.0
27/01:00pm 36.1 34.4 12.3 24 14.4 NNW 13 20 7 11 1014.1 1012.8 0.0
27/12:30pm 35.1 33.5 11.5 24 14.1 NW 11 28 6 15 1014.9 1013.5 0.0
27/12:00pm 34.3 33.4 10.8 24 13.8 W 6 13 3 7 1015.4 1014.0 0.0
27/11:30am 33.8 32.5 9.8 23 13.9 N 7 13 4 7 1016.1 1014.7 0.0
27/11:00am 33.2 31.0 9.3 23 13.7 NNE 11 17 6 9 1016.6 1015.2 0.0
27/10:30am 32.3 30.1 9.2 24 13.1 N 11 17 6 9 1017.0 1015.6 0.0
27/10:00am 30.7 28.2 8.4 25 12.4 ENE 11 17 6 9 1017.1 1015.7 0.0
27/09:30am 29.6 26.0 6.9 24 12.3 ESE 15 22 8 12 1017.1 1015.7 0.0
27/09:00am 28.3 23.5 5.8 24 11.8 ESE 20 26 11 14 1017.2 1015.8 0.0
27/08:30am 27.4 22.8 5.6 25 11.4 ESE 19 26 10 14 1016.9 1015.5 0.0
27/08:00am 25.8 22.1 4.3 25 10.9 SE 13 20 7 11 1016.7 1015.3 0.0
27/07:30am 22.6 19.7 4.6 31 9.0 SSE 9 11 5 6 1016.5 1015.1 0.0
27/07:00am 20.9 17.6 4.5 34 8.0 SSE 11 13 6 7 1016.2 1014.8 0.0
27/06:30am 20.6 16.9 4.2 34 8.0 SSE 13 15 7 8 1016.1 1014.7 0.0
27/06:00am 20.8 17.1 4.4 34 8.0 SSE 13 13 7 7 1016.0 1014.6 0.0
27/05:30am 21.2 17.8 3.9 32 8.4 SSE 11 13 6 7 1015.7 1014.3 0.0
27/05:00am 21.6 18.5 3.8 31 8.7 SSE 9 13 5 7 1015.7 1014.3 0.0
27/04:30am 22.6 19.1 3.7 29 9.3 SSE 11 13 6 7 1015.4 1014.0 0.0
27/04:00am 23.4 18.7 3.4 27 9.8 SSE 17 19 9 10 1015.1 1013.7 0.0
27/03:30am 23.9 18.8 3.2 26 10.1 SSE 19 20 10 11 1015.1 1013.7 0.0
27/03:00am 23.9 19.1 2.7 25 10.3 SSE 17 19 9 10 1015.4 1014.0 0.0
27/02:30am 24.3 19.6 3.0 25 10.4 SSE 17 20 9 11 1015.5 1014.1 0.0
27/02:00am 24.7 19.6 2.8 24 10.7 SSE 19 22 10 12 1015.5 1014.1 0.0
27/01:30am 25.2 20.0 2.6 23 11.0 SSE 19 24 10 13 1015.8 1014.4 0.0
27/01:00am 26.0 20.6 2.7 22 11.4 SSE 20 26 11 14 1015.9 1014.5 0.0
27/12:30am 26.1 20.9 2.7 22 11.5 SSE 19 24 10 13 1016.1 1014.7 0.0
27/12:00am 26.5 21.2 3.1 22 11.6 SSE 20 26 11 14 1016.3 1014.9 0.0
 
Date/Time
EST
Temp
°C
App
Temp
°C
Dew
Point
Rel
Hum
%
Delta-T
°C
Wind Press
QNH
hPa
Press
MSL
hPa
Rain
since 9 am
mm
Dir
 
Spd
km/h
Gust
km/h
Spd
kts
Gust
kts
26/11:30pm 27.0 21.3 2.8 21 12.0 SSE 22 28 12 15 1016.2 1014.8 0.0
26/11:00pm 27.6 22.0 3.3 21 12.2 S 22 30 12 16 1016.1 1014.7 0.0
26/10:30pm 28.5 22.9 3.4 20 12.7 S 22 30 12 16 1016.0 1014.6 0.0
26/10:00pm 29.1 23.1 3.1 19 13.1 S 24 30 13 16 1015.7 1014.3 0.0
26/09:30pm 29.2 23.2 3.2 19 13.2 S 24 30 13 16 1015.3 1013.9 0.0
26/09:00pm 29.4 23.9 4.1 20 13.0 S 22 28 12 15 1015.1 1013.7 0.0
26/08:30pm 29.7 24.9 4.4 20 13.1 S 19 22 10 12 1014.8 1013.4 0.0
26/08:00pm 31.1 25.8 4.8 19 13.8 SSW 22 28 12 15 1014.5 1013.1 0.0
26/07:30pm 29.7 26.3 7.6 25 12.1 S 15 17 8 9 1014.0 1012.7 0.0
26/07:00pm 32.2 28.3 7.1 21 13.8 S 17 19 9 10 1013.6 1012.3 0.0
26/06:30pm 34.4 29.8 5.8 17 15.6 S 19 22 10 12 1013.3 1011.9 0.0
26/06:00pm 36.2 31.0 5.5 15 16.8 S 22 30 12 16 1013.0 1011.6 0.0
26/05:30pm 37.1 31.5 5.2 14 17.5 S 24 30 13 16 1012.8 1011.4 0.0
26/05:00pm 37.9 32.4 5.8 14 17.8 S 24 33 13 18 1012.6 1011.2 0.0
26/04:30pm 37.9 34.1 5.8 14 17.8 SE 15 22 8 12 1012.6 1011.2 0.0
26/04:00pm 38.1 34.0 6.0 14 17.9 SSE 17 32 9 17 1012.7 1011.3 0.0
26/03:30pm 38.3 34.4 7.1 15 17.7 SE 17 28 9 15 1012.8 1011.4 0.0
26/03:00pm 37.5 34.2 6.5 15 17.3 S 13 24 7 13 1013.1 1011.7 0.0
26/02:30pm 37.8 34.2 6.7 15 17.5 SE 15 28 8 15 1013.4 1012.0 0.0
26/02:00pm 36.9 32.4 6.0 15 17.1 SSE 19 35 10 19 1013.9 1012.6 0.0
26/01:30pm 36.9 32.2 6.0 15 17.1 SSE 20 35 11 19 1014.3 1013.0 0.0

Other Formats:

Comma delimited format used in spreadsheet applications
http://www.bom.gov.au/fwo/IDQ60801/IDQ60801.94341.axf

JavaScript Object Notation format (JSON) in row-major order
http://www.bom.gov.au/fwo/IDQ60801/IDQ60801.94341.json